Time;durP1;ratioP1;P1;durP2;ratioP2;P2;SDS_P1;SDS_P2;PMS_P1;PMS_P2;Temp;Humidity;BMP_temperature;BMP_pressure;BME280_temperature;BME280_humidity;BME280_pressure;Samples;Min_cycle;Max_cycle;Signal;HPM_P1;HPM_P2
2022/06/29 00:00:28;;;;;;;1.80;1.07;;;15.50;99.90;;;;;;5035251;28;20168;-75
2022/06/29 00:02:55;;;;;;;1.90;1.23;;;15.50;99.90;;;;;;5017436;28;20187;-76
2022/06/29 00:05:23;;;;;;;1.70;1.27;;;15.40;99.90;;;;;;5035002;28;20200;-74
2022/06/29 00:07:49;;;;;;;1.73;1.10;;;15.40;99.90;;;;;;5035066;28;20176;-75
2022/06/29 00:10:15;;;;;;;2.90;1.00;;;15.40;99.90;;;;;;5035097;28;20168;-75
2022/06/29 00:12:43;;;;;;;4.37;2.77;;;15.40;99.90;;;;;;5035022;28;20218;-75
2022/06/29 00:15:09;;;;;;;2.17;1.17;;;15.30;99.90;;;;;;5017094;28;20196;-75
2022/06/29 00:17:35;;;;;;;1.40;1.00;;;15.40;99.90;;;;;;5035184;28;20252;-75
2022/06/29 00:20:02;;;;;;;3.23;1.50;;;15.30;99.90;;;;;;5034887;28;20168;-75
2022/06/29 00:22:28;;;;;;;2.27;1.10;;;15.30;99.90;;;;;;5016907;28;20200;-75
2022/06/29 00:24:54;;;;;;;2.37;1.10;;;15.30;99.90;;;;;;5034603;28;20259;-75
2022/06/29 00:27:21;;;;;;;3.50;1.20;;;15.20;99.90;;;;;;5034894;28;20180;-75
2022/06/29 00:29:46;;;;;;;2.00;0.93;;;15.30;99.90;;;;;;5034703;28;20173;-74
2022/06/29 00:32:12;;;;;;;2.77;1.17;;;15.20;99.90;;;;;;5034887;28;20169;-74
2022/06/29 00:34:38;;;;;;;1.47;1.00;;;15.20;99.90;;;;;;5016696;28;20196;-75
2022/06/29 00:37:04;;;;;;;3.20;1.40;;;15.20;99.90;;;;;;5033545;28;20544;-75
2022/06/29 00:39:30;;;;;;;3.57;1.53;;;15.20;99.90;;;;;;5034429;28;20179;-75
2022/06/29 00:41:56;;;;;;;1.30;1.20;;;15.20;99.90;;;;;;5034445;28;20192;-75
2022/06/29 00:44:21;;;;;;;2.87;1.40;;;15.10;99.90;;;;;;5016463;28;20192;-75
2022/06/29 00:46:50;;;;;;;3.73;1.30;;;15.10;99.90;;;;;;5034665;28;20164;-75
2022/06/29 00:49:17;;;;;;;4.10;1.10;;;15.10;99.90;;;;;;5034880;28;20164;-74
2022/06/29 00:51:46;;;;;;;1.37;1.10;;;15.10;99.90;;;;;;5035156;28;20176;-75
2022/06/29 00:54:22;;;;;;;2.17;0.80;;;15.10;99.90;;;;;;5016628;28;20562;-74
2022/06/29 00:56:49;;;;;;;3.13;1.10;;;15.10;99.90;;;;;;5016478;28;20172;-74
2022/06/29 00:59:19;;;;;;;1.23;1.00;;;15.00;99.90;;;;;;5016320;28;20685;-74
2022/06/29 01:01:45;;;;;;;4.33;1.20;;;15.10;99.90;;;;;;5034205;28;20265;-74
2022/06/29 01:04:10;;;;;;;5.10;1.10;;;15.00;99.90;;;;;;5033961;28;20199;-75
2022/06/29 01:06:36;;;;;;;3.07;1.10;;;15.00;99.90;;;;;;5016280;28;20172;-75
2022/06/29 01:09:03;;;;;;;4.60;1.40;;;14.90;99.90;;;;;;5034153;28;20276;-74
2022/06/29 01:11:29;;;;;;;1.30;1.20;;;14.90;99.90;;;;;;5033848;28;20211;-74
2022/06/29 01:13:55;;;;;;;1.57;1.00;;;14.90;99.90;;;;;;5033815;28;20269;-75
2022/06/29 01:16:20;;;;;;;1.73;1.20;;;14.90;99.90;;;;;;5033947;28;20257;-75
2022/06/29 01:18:46;;;;;;;1.40;1.17;;;14.90;99.90;;;;;;5033811;28;20176;-74
2022/06/29 01:21:11;;;;;;;5.23;1.30;;;14.90;99.90;;;;;;5015916;28;20206;-74
2022/06/29 01:23:37;;;;;;;3.10;1.20;;;14.90;99.90;;;;;;5015972;28;20176;-75
2022/06/29 01:26:04;;;;;;;1.47;1.17;;;14.90;99.90;;;;;;5015742;28;20618;-74
2022/06/29 01:28:30;;;;;;;6.13;1.40;;;14.90;99.90;;;;;;5033779;28;20230;-74
2022/06/29 01:30:57;;;;;;;1.53;1.10;;;14.90;99.90;;;;;;5033865;28;20172;-75
2022/06/29 01:33:22;;;;;;;2.27;1.10;;;14.90;99.90;;;;;;5033464;28;20222;-75
2022/06/29 01:35:48;;;;;;;4.00;1.23;;;14.80;99.90;;;;;;5033361;28;20200;-74
2022/06/29 01:38:13;;;;;;;2.63;1.30;;;14.90;99.90;;;;;;5033411;28;20172;-75
2022/06/29 01:40:39;;;;;;;5.53;1.53;;;14.90;99.90;;;;;;5033524;28;20184;-74
2022/06/29 01:43:04;;;;;;;1.33;1.20;;;14.90;99.90;;;;;;5033803;28;20168;-75
2022/06/29 01:45:30;;;;;;;1.13;1.00;;;14.90;99.90;;;;;;5033267;28;20192;-74
2022/06/29 01:47:55;;;;;;;2.63;1.30;;;14.80;99.90;;;;;;5033127;28;20168;-75
2022/06/29 01:50:21;;;;;;;1.70;1.00;;;14.70;99.90;;;;;;5033206;28;20618;-74
2022/06/29 01:52:46;;;;;;;1.57;1.30;;;14.80;99.90;;;;;;5033295;28;20261;-75
2022/06/29 01:55:12;;;;;;;5.83;1.27;;;14.80;99.90;;;;;;5033268;28;20199;-74
2022/06/29 01:57:37;;;;;;;3.03;1.47;;;14.80;99.90;;;;;;5033409;28;20183;-74
2022/06/29 02:00:03;;;;;;;1.60;1.20;;;14.80;99.90;;;;;;5033175;28;20542;-74
2022/06/29 02:02:29;;;;;;;1.80;1.20;;;14.80;99.90;;;;;;5032991;28;20218;-75
2022/06/29 02:04:54;;;;;;;3.27;1.43;;;14.70;99.90;;;;;;5032994;28;20339;-74
2022/06/29 02:07:20;;;;;;;1.93;1.17;;;14.80;99.90;;;;;;5033115;28;20255;-75
2022/06/29 02:09:45;;;;;;;3.57;1.00;;;14.80;99.90;;;;;;5033077;28;20192;-75
2022/06/29 02:12:11;;;;;;;2.10;1.20;;;14.80;99.90;;;;;;5033344;28;20226;-75
2022/06/29 02:14:36;;;;;;;2.53;1.40;;;14.80;99.90;;;;;;5033038;28;20283;-74
2022/06/29 02:17:02;;;;;;;3.40;1.30;;;14.80;99.90;;;;;;5015308;28;20546;-75
2022/06/29 02:19:28;;;;;;;3.00;1.50;;;14.70;99.90;;;;;;5033276;28;20204;-74
2022/06/29 02:21:53;;;;;;;2.93;1.53;;;14.60;99.90;;;;;;5032889;28;20275;-75
2022/06/29 02:24:19;;;;;;;1.47;1.17;;;14.60;99.90;;;;;;5015092;28;20188;-75
2022/06/29 02:26:45;;;;;;;3.17;1.27;;;14.60;99.90;;;;;;5033201;28;20215;-74
2022/06/29 02:29:10;;;;;;;3.03;1.20;;;14.60;99.90;;;;;;5032842;28;20165;-75
2022/06/29 02:37:04;;;;;;;2.53;1.33;;;14.50;99.90;;;;;;5033088;28;20160;-74
2022/06/29 02:39:30;;;;;;;2.43;1.20;;;14.50;99.90;;;;;;5015126;28;20176;-76
2022/06/29 02:41:55;;;;;;;3.00;1.60;;;14.40;99.90;;;;;;5014975;28;20235;-74
2022/06/29 02:44:21;;;;;;;1.50;1.33;;;14.40;99.90;;;;;;5032549;28;20231;-75
2022/06/29 02:46:46;;;;;;;2.53;1.40;;;14.40;99.90;;;;;;5033217;28;20184;-75
2022/06/29 02:49:12;;;;;;;2.93;1.43;;;14.40;99.90;;;;;;5015257;28;20230;-75
2022/06/29 02:51:37;;;;;;;2.70;1.40;;;14.40;99.90;;;;;;5032865;28;20230;-74
2022/06/29 02:54:03;;;;;;;3.03;1.47;;;14.30;99.90;;;;;;5032744;28;20582;-74
2022/06/29 02:56:29;;;;;;;1.83;1.40;;;14.30;99.90;;;;;;5032911;28;20180;-75
2022/06/29 02:58:54;;;;;;;1.60;1.07;;;14.30;99.90;;;;;;5014894;28;20650;-74
2022/06/29 03:01:20;;;;;;;3.17;1.33;;;14.30;99.90;;;;;;5034524;28;20222;-75
2022/06/29 03:03:45;;;;;;;2.87;1.33;;;14.30;99.90;;;;;;5036669;28;20167;-75
2022/06/29 03:06:11;;;;;;;2.30;1.13;;;14.30;99.90;;;;;;5036339;28;20706;-76
2022/06/29 03:08:36;;;;;;;2.77;1.57;;;14.30;99.90;;;;;;5036149;28;20200;-75
2022/06/29 03:11:02;;;;;;;1.27;1.17;;;14.20;99.90;;;;;;5036103;28;20217;-75
2022/06/29 03:13:28;;;;;;;2.20;1.37;;;14.20;99.90;;;;;;5036117;28;20184;-75
2022/06/29 03:15:53;;;;;;;3.20;1.33;;;14.20;99.90;;;;;;5036206;28;20196;-76
2022/06/29 03:18:19;;;;;;;3.07;1.50;;;14.10;99.90;;;;;;5035938;28;20208;-75
2022/06/29 03:20:44;;;;;;;3.63;1.27;;;14.20;99.90;;;;;;5018124;28;20176;-75
2022/06/29 03:23:10;;;;;;;4.73;1.20;;;14.20;99.90;;;;;;5018151;28;20183;-75
2022/06/29 03:25:35;;;;;;;2.27;1.30;;;14.10;99.90;;;;;;5035720;28;20243;-76
2022/06/29 03:28:01;;;;;;;1.60;1.40;;;14.10;99.90;;;;;;5035784;28;20180;-75
2022/06/29 03:30:26;;;;;;;2.03;1.40;;;14.00;99.90;;;;;;5035806;28;20168;-75
2022/06/29 03:32:52;;;;;;;2.70;1.50;;;14.00;99.90;;;;;;5035714;28;20172;-75
2022/06/29 03:35:17;;;;;;;2.27;1.47;;;14.00;99.90;;;;;;5017974;28;20196;-75
2022/06/29 03:37:43;;;;;;;1.87;1.30;;;14.00;99.90;;;;;;5035722;28;20176;-75
2022/06/29 03:40:10;;;;;;;3.47;1.17;;;14.00;99.90;;;;;;5017872;28;20176;-76
2022/06/29 03:42:35;;;;;;;2.33;1.43;;;13.90;99.90;;;;;;5035851;28;20203;-75
2022/06/29 03:45:01;;;;;;;1.73;1.43;;;13.90;99.90;;;;;;5017806;28;20192;-74
2022/06/29 03:47:27;;;;;;;4.87;1.60;;;13.90;99.90;;;;;;5035489;28;20247;-75
2022/06/29 03:49:53;;;;;;;3.07;1.37;;;13.90;99.90;;;;;;5035810;28;20657;-75
2022/06/29 03:52:18;;;;;;;2.83;1.40;;;13.90;99.90;;;;;;5035519;28;20172;-75
2022/06/29 03:54:44;;;;;;;3.10;1.50;;;13.90;99.90;;;;;;5035534;28;20196;-75
2022/06/29 03:57:09;;;;;;;2.00;1.80;;;13.90;99.90;;;;;;5017660;28;20181;-74
2022/06/29 03:59:35;;;;;;;2.20;1.43;;;13.90;99.90;;;;;;5017495;28;20180;-75
2022/06/29 04:02:01;;;;;;;1.77;1.47;;;13.90;99.90;;;;;;5035195;28;20223;-75
2022/06/29 04:04:26;;;;;;;1.50;1.40;;;14.00;99.90;;;;;;5035144;28;20216;-76
2022/06/29 04:06:52;;;;;;;2.73;1.53;;;13.90;99.90;;;;;;5035114;28;20165;-75
2022/06/29 04:09:17;;;;;;;2.20;1.30;;;13.90;99.90;;;;;;5035350;28;20227;-75
2022/06/29 04:11:49;;;;;;;2.27;1.57;;;13.90;99.90;;;;;;5034910;28;20554;-75
2022/06/29 04:14:15;;;;;;;1.57;1.40;;;13.90;99.90;;;;;;5034990;28;20636;-75
2022/06/29 04:16:41;;;;;;;3.23;1.53;;;13.90;99.90;;;;;;5034927;28;20710;-75
2022/06/29 04:19:07;;;;;;;1.77;1.30;;;13.90;99.90;;;;;;5035193;28;20255;-75
2022/06/29 04:21:32;;;;;;;1.53;1.20;;;13.90;99.90;;;;;;5017212;28;20287;-76
2022/06/29 04:23:58;;;;;;;1.93;1.30;;;13.90;99.90;;;;;;5034868;28;20176;-75
2022/06/29 04:26:23;;;;;;;1.97;1.47;;;13.90;99.90;;;;;;5063048;22;20232;-80
2022/06/29 04:28:49;;;;;;;1.83;1.30;;;13.90;99.90;;;;;;5038898;28;20184;-80
2022/06/29 04:31:14;;;;;;;2.00;1.27;;;13.90;99.90;;;;;;5038227;28;20211;-80
2022/06/29 04:33:40;;;;;;;1.50;1.30;;;13.90;99.90;;;;;;5024473;28;20529;-79
2022/06/29 04:36:05;;;;;;;1.80;1.37;;;13.90;99.90;;;;;;5052161;28;20200;-78
2022/06/29 04:38:31;;;;;;;3.37;1.30;;;13.90;99.90;;;;;;5055094;28;20208;-79
2022/06/29 04:40:59;;;;;;;2.50;1.40;;;13.80;99.90;;;;;;5053389;28;20184;-80
2022/06/29 04:43:26;;;;;;;3.63;1.27;;;13.90;99.90;;;;;;5053500;28;20169;-80
2022/06/29 04:48:35;;;;;;;3.23;1.50;;;13.90;99.90;;;;;;5055784;28;20164;-79
2022/06/29 04:51:01;;;;;;;3.97;1.20;;;13.90;99.90;;;;;;5054352;28;20180;-80
2022/06/29 04:53:26;;;;;;;4.07;1.70;;;13.80;99.90;;;;;;5023701;28;20218;-80
2022/06/29 04:55:52;;;;;;;3.10;1.30;;;13.90;99.90;;;;;;5039813;28;20208;-80
2022/06/29 04:58:17;;;;;;;2.00;1.33;;;13.90;99.90;;;;;;5040803;28;20226;-81
2022/06/29 05:00:43;;;;;;;1.70;1.33;;;13.90;99.90;;;;;;5039702;28;20527;-78
2022/06/29 05:03:08;;;;;;;1.50;1.23;;;13.90;99.90;;;;;;5021452;28;20172;-80
2022/06/29 05:05:34;;;;;;;4.30;1.40;;;13.90;99.90;;;;;;5040037;28;20195;-81
2022/06/29 05:07:59;;;;;;;1.30;1.20;;;13.90;99.90;;;;;;5039862;28;20797;-81
2022/06/29 05:10:25;;;;;;;2.27;1.30;;;14.00;99.90;;;;;;5021668;28;20603;-80
2022/06/29 05:12:51;;;;;;;3.50;1.70;;;14.00;99.90;;;;;;5038692;28;20181;-80
2022/06/29 05:15:16;;;;;;;4.93;1.70;;;14.00;99.90;;;;;;5038390;28;20218;-80
2022/06/29 05:17:42;;;;;;;2.37;1.40;;;14.10;99.90;;;;;;5038138;28;20195;-80
2022/06/29 05:20:09;;;;;;;3.23;1.27;;;14.10;99.90;;;;;;5038007;28;20200;-80
2022/06/29 05:22:35;;;;;;;1.43;1.30;;;14.20;99.90;;;;;;5037695;28;20195;-80
2022/06/29 05:25:02;;;;;;;1.50;1.33;;;14.20;99.90;;;;;;5036968;28;20737;-80
2022/06/29 05:27:27;;;;;;;2.73;1.53;;;14.20;99.90;;;;;;5020622;28;20209;-79
2022/06/29 05:29:53;;;;;;;4.43;1.83;;;14.30;99.90;;;;;;5037586;28;20184;-80
2022/06/29 05:32:18;;;;;;;1.90;1.20;;;14.30;99.90;;;;;;5020780;28;20188;-81
2022/06/29 05:34:44;;;;;;;4.17;1.60;;;14.40;99.90;;;;;;5037492;28;20180;-79
2022/06/29 05:37:10;;;;;;;3.00;1.20;;;14.40;99.90;;;;;;5018282;28;20180;-79
2022/06/29 05:39:35;;;;;;;3.07;1.40;;;14.50;99.90;;;;;;5036276;28;20172;-78
2022/06/29 05:42:01;;;;;;;2.57;1.57;;;14.60;99.90;;;;;;5036326;28;20258;-79
2022/06/29 05:44:26;;;;;;;4.47;1.60;;;14.60;99.90;;;;;;5018961;28;20180;-79
2022/06/29 05:46:52;;;;;;;6.63;1.50;;;14.70;99.90;;;;;;5036732;28;20196;-78
2022/06/29 05:49:17;;;;;;;1.20;1.10;;;14.70;99.90;;;;;;5037070;28;20200;-79
2022/06/29 05:51:43;;;;;;;5.63;1.70;;;14.80;99.90;;;;;;5037128;28;20183;-77
2022/06/29 05:54:08;;;;;;;2.40;1.53;;;14.80;99.90;;;;;;5036894;28;20172;-79
2022/06/29 05:56:34;;;;;;;2.60;1.93;;;14.80;99.90;;;;;;5035953;28;20203;-79
2022/06/29 05:58:59;;;;;;;1.73;1.40;;;14.90;99.90;;;;;;5035710;28;20181;-79
2022/06/29 06:01:25;;;;;;;3.97;1.43;;;14.90;99.90;;;;;;5036059;28;20207;-79
2022/06/29 06:03:50;;;;;;;5.20;1.50;;;15.00;99.90;;;;;;5018523;28;20210;-78
2022/06/29 06:06:16;;;;;;;1.57;1.30;;;15.00;99.90;;;;;;5036567;28;20192;-79
2022/06/29 06:08:41;;;;;;;3.40;1.60;;;15.10;99.90;;;;;;5035606;28;20238;-78
2022/06/29 06:11:07;;;;;;;1.97;1.60;;;15.10;99.90;;;;;;5034785;28;20175;-78
2022/06/29 06:13:33;;;;;;;2.83;1.70;;;15.20;99.90;;;;;;5016455;28;20605;-77
2022/06/29 06:15:59;;;;;;;1.53;1.30;;;15.30;99.90;;;;;;5017221;28;20287;-77
2022/06/29 06:18:24;;;;;;;2.03;1.33;;;15.30;99.90;;;;;;5035172;28;20219;-77
2022/06/29 06:20:50;;;;;;;2.30;1.50;;;15.40;99.90;;;;;;5033871;28;20642;-78
2022/06/29 06:23:15;;;;;;;1.50;1.40;;;15.40;99.90;;;;;;5016464;28;20172;-79
2022/06/29 06:25:41;;;;;;;2.57;1.50;;;15.50;99.90;;;;;;5034764;28;20554;-79
2022/06/29 06:28:07;;;;;;;4.03;1.53;;;15.60;99.90;;;;;;5017004;28;20183;-78
2022/06/29 06:30:32;;;;;;;1.53;1.40;;;15.60;99.90;;;;;;5034571;28;20578;-77
2022/06/29 06:32:58;;;;;;;1.23;1.13;;;15.70;99.90;;;;;;5015349;28;20226;-77
2022/06/29 06:35:24;;;;;;;1.90;1.73;;;15.70;99.90;;;;;;5016424;28;20607;-77
2022/06/29 06:37:52;;;;;;;1.33;1.23;;;15.80;99.90;;;;;;5037804;28;20222;-76
2022/06/29 06:43:02;;;;;;;2.57;1.57;;;16.00;99.90;;;;;;5037216;28;20250;-77
2022/06/29 06:45:27;;;;;;;3.67;1.77;;;16.10;99.90;;;;;;5037878;28;20187;-78
2022/06/29 06:47:53;;;;;;;2.50;1.50;;;16.20;99.90;;;;;;5037666;28;20259;-77
2022/06/29 06:50:19;;;;;;;5.03;1.50;;;16.30;99.90;;;;;;5019585;28;20169;-77
2022/06/29 06:52:44;;;;;;;2.60;1.77;;;16.40;99.90;;;;;;5037759;28;20537;-77
2022/06/29 06:55:10;;;;;;;5.00;2.33;;;16.50;99.90;;;;;;5037193;28;20192;-77
2022/06/29 06:57:36;;;;;;;3.20;1.80;;;16.70;99.90;;;;;;5037375;28;20172;-77
2022/06/29 07:00:02;;;;;;;2.53;1.67;;;16.90;99.90;;;;;;5024505;28;20263;-77
2022/06/29 07:02:28;;;;;;;2.97;1.80;;;17.00;99.90;;;;;;5036932;28;20219;-77
2022/06/29 07:04:54;;;;;;;1.30;1.20;;;17.10;99.90;;;;;;5035690;28;20192;-77
2022/06/29 07:07:19;;;;;;;5.23;1.63;;;17.20;99.90;;;;;;5036838;28;20590;-77
2022/06/29 07:09:45;;;;;;;2.57;1.83;;;17.40;99.90;;;;;;5036944;28;20680;-77
2022/06/29 07:12:10;;;;;;;3.73;1.90;;;17.50;99.90;;;;;;5037275;28;20176;-77
2022/06/29 07:14:36;;;;;;;2.37;1.50;;;17.60;99.90;;;;;;5035427;28;20549;-76
2022/06/29 07:17:01;;;;;;;4.40;1.40;;;17.70;99.90;;;;;;5037383;28;20650;-77
2022/06/29 07:19:27;;;;;;;3.17;1.70;;;17.80;99.90;;;;;;5035782;28;20642;-77
2022/06/29 07:21:52;;;;;;;14.37;6.90;;;17.90;99.90;;;;;;5036894;28;20192;-77
2022/06/29 07:24:18;;;;;;;21.97;8.53;;;18.10;99.90;;;;;;5036076;28;20168;-78
2022/06/29 07:26:44;;;;;;;6.77;3.43;;;18.10;99.90;;;;;;5025099;28;20204;-76
2022/06/29 07:29:09;;;;;;;2.63;1.83;;;18.20;99.90;;;;;;5036705;28;20221;-77
2022/06/29 07:31:35;;;;;;;4.27;2.17;;;18.30;99.90;;;;;;5052047;28;20176;-78
2022/06/29 07:34:00;;;;;;;3.03;1.73;;;18.40;99.90;;;;;;5036641;28;20181;-77
2022/06/29 07:36:27;;;;;;;4.50;2.40;;;18.50;99.90;;;;;;5036329;28;20203;-77
2022/06/29 07:38:52;;;;;;;8.20;2.97;;;18.50;99.90;;;;;;5035943;28;20183;-77
2022/06/29 07:41:18;;;;;;;9.63;3.30;;;18.60;99.90;;;;;;5036522;28;20200;-77
2022/06/29 07:43:44;;;;;;;7.10;3.10;;;18.60;95.40;;;;;;5036321;28;20553;-78
2022/06/29 07:46:10;;;;;;;5.27;2.30;;;18.70;46.20;;;;;;5035972;28;20208;-77
2022/06/29 07:48:35;;;;;;;2.70;1.63;;;18.70;48.10;;;;;;5036109;28;20171;-77
2022/06/29 07:51:01;;;;;;;1.83;1.37;;;18.80;92.70;;;;;;5036063;28;20549;-77
2022/06/29 07:53:27;;;;;;;2.17;1.60;;;18.80;99.90;;;;;;5036255;28;20173;-77
2022/06/29 07:55:53;;;;;;;2.17;1.60;;;18.80;99.90;;;;;;5034739;28;20271;-77
2022/06/29 07:58:18;;;;;;;4.10;1.73;;;18.90;99.90;;;;;;5034056;28;20169;-77
2022/06/29 08:00:47;;;;;;;2.50;1.60;;;18.90;99.90;;;;;;5026072;28;20176;-77
2022/06/29 08:03:13;;;;;;;2.60;1.77;;;18.90;99.90;;;;;;5050709;28;20246;-77
2022/06/29 08:05:38;;;;;;;3.83;1.90;;;19.00;99.90;;;;;;5050321;28;20208;-78
2022/06/29 08:08:05;;;;;;;2.40;1.90;;;19.00;99.90;;;;;;5034728;28;20180;-78
2022/06/29 08:10:33;;;;;;;2.43;1.70;;;19.10;99.90;;;;;;5034981;28;20202;-78
2022/06/29 08:13:00;;;;;;;3.43;1.93;;;19.10;99.90;;;;;;5034318;28;20225;-78
2022/06/29 08:15:27;;;;;;;3.03;1.87;;;19.20;99.90;;;;;;5032816;28;20211;-77
2022/06/29 08:17:53;;;;;;;4.67;3.30;;;19.20;99.90;;;;;;5035811;28;20655;-78
2022/06/29 08:20:19;;;;;;;3.40;2.37;;;19.30;99.90;;;;;;5034084;28;20181;-78
2022/06/29 08:22:45;;;;;;;4.67;1.70;;;19.30;99.90;;;;;;5034118;28;20219;-78
2022/06/29 08:25:11;;;;;;;3.10;1.60;;;19.40;99.90;;;;;;5035672;28;20212;-77
2022/06/29 08:27:37;;;;;;;2.17;1.43;;;19.50;99.90;;;;;;5035250;28;20248;-77
2022/06/29 08:30:04;;;;;;;4.17;1.67;;;19.40;99.90;;;;;;5035036;28;20575;-77
2022/06/29 08:32:30;;;;;;;4.13;1.63;;;19.50;80.60;;;;;;5033999;28;20184;-75
2022/06/29 08:35:01;;;;;;;2.33;1.50;;;19.60;1.00;;;;;;5034640;28;20666;-76
2022/06/29 08:37:28;;;;;;;3.53;1.60;;;19.60;1.00;;;;;;5036684;28;20243;-77
2022/06/29 08:39:53;;;;;;;3.70;1.70;;;19.70;1.00;;;;;;5035256;28;20591;-77
2022/06/29 08:42:22;;;;;;;3.03;1.73;;;19.70;1.00;;;;;;5035242;28;20257;-78
2022/06/29 08:44:49;;;;;;;2.40;1.43;;;19.80;1.00;;;;;;5036241;28;20168;-76
2022/06/29 08:47:15;;;;;;;6.97;1.93;;;19.70;1.00;;;;;;5036100;28;20180;-78
2022/06/29 08:49:41;;;;;;;2.97;1.77;;;19.80;1.00;;;;;;5035955;28;20538;-77
2022/06/29 08:52:09;;;;;;;3.13;1.60;;;19.80;1.00;;;;;;5034181;28;20191;-78
2022/06/29 08:54:42;;;;;;;3.13;1.23;;;19.80;1.00;;;;;;5035609;28;20250;-79
2022/06/29 08:57:08;;;;;;;2.63;1.63;;;19.90;1.00;;;;;;5035036;28;20635;-79
2022/06/29 08:59:34;;;;;;;5.60;1.77;;;19.90;1.00;;;;;;5034261;28;20180;-80
2022/06/29 09:02:00;;;;;;;1.73;1.60;;;20.00;1.00;;;;;;5036434;28;20206;-79
2022/06/29 09:04:26;;;;;;;2.70;1.53;;;20.00;1.00;;;;;;5036583;28;20183;-80
2022/06/29 09:06:54;;;;;;;3.20;1.50;;;20.10;1.00;;;;;;5034727;28;20299;-80
2022/06/29 09:09:19;;;;;;;2.40;1.60;;;20.10;1.00;;;;;;5036070;28;20172;-79
2022/06/29 09:11:46;;;;;;;2.30;1.63;;;20.20;1.00;;;;;;5036589;28;20176;-79
2022/06/29 09:14:16;;;;;;;2.20;1.53;;;20.20;1.00;;;;;;5035779;28;20225;-80
2022/06/29 09:17:03;;;;;;;5.10;1.60;;;20.20;1.00;;;;;;5034430;28;20208;-78
2022/06/29 09:19:34;;;;;;;1.57;1.20;;;20.30;1.00;;;;;;5035402;28;20172;-79
2022/06/29 09:22:00;;;;;;;5.63;1.60;;;20.30;1.00;;;;;;5017917;28;20215;-80
2022/06/29 09:24:34;;;;;;;5.10;1.50;;;20.40;1.00;;;;;;5036200;28;20169;-80
2022/06/29 09:27:03;;;;;;;2.20;1.60;;;20.40;1.00;;;;;;5035734;28;20176;-80
2022/06/29 09:29:31;;;;;;;1.90;1.53;;;20.40;1.00;;;;;;5035996;28;20174;-80
2022/06/29 09:32:09;;;;;;;4.63;1.50;;;20.40;1.00;;;;;;5031553;28;20177;-79
2022/06/29 09:34:42;;;;;;;3.50;1.70;;;20.50;1.00;;;;;;5035890;28;20183;-79
2022/06/29 09:37:29;;;;;;;2.60;1.90;;;20.50;99.90;;;;;;5034633;28;20153;-79
2022/06/29 09:39:58;;;;;;;3.70;1.60;;;20.50;99.90;;;;;;5035000;28;20541;-79
2022/06/29 09:42:26;;;;;;;2.37;1.37;;;20.60;6.70;;;;;;5035534;28;20215;-79
2022/06/29 09:44:51;;;;;;;2.90;1.83;;;20.60;99.90;;;;;;5035101;28;20235;-79
2022/06/29 09:47:19;;;;;;;3.17;1.60;;;20.70;1.00;;;;;;5050577;28;20176;-79
2022/06/29 09:50:01;;;;;;;2.40;1.67;;;20.80;1.00;;;;;;5050763;28;20263;-78
2022/06/29 09:52:27;;;;;;;1.93;1.30;;;20.90;99.90;;;;;;5017343;28;20171;-79
2022/06/29 09:54:54;;;;;;;2.20;1.20;;;21.00;99.90;;;;;;5035299;28;20192;-78
2022/06/29 09:57:23;;;;;;;4.20;1.90;;;21.00;1.00;;;;;;5035684;28;20179;-79
2022/06/29 10:02:49;;;;;;;2.13;1.57;;;21.30;99.90;;;;;;5035212;28;20215;-79
2022/06/29 10:05:16;;;;;;;1.53;1.43;;;21.50;99.90;;;;;;5035187;28;20235;-78
2022/06/29 10:07:49;;;;;;;2.90;1.23;;;21.50;1.00;;;;;;5016745;28;20187;-78
2022/06/29 10:10:28;;;;;;;2.60;1.80;;;21.60;99.90;;;;;;5034130;28;20175;-79
2022/06/29 10:13:43;;;;;;;3.13;1.77;;;21.70;21.40;;;;;;5016851;28;20164;-77
2022/06/29 10:16:21;;;;;;;1.97;1.50;;;21.90;1.00;;;;;;5034925;28;20241;-78
2022/06/29 10:19:30;;;;;;;2.13;1.57;;;21.90;99.90;;;;;;5050505;28;20164;-78
2022/06/29 10:21:57;;;;;;;6.13;1.50;;;22.00;99.90;;;;;;4998452;28;20235;-80
2022/06/29 10:24:22;;;;;;;3.53;1.63;;;22.10;1.00;;;;;;5050120;28;20176;-79
2022/06/29 10:26:49;;;;;;;1.47;1.37;;;22.20;1.00;;;;;;5020570;28;20212;-78
2022/06/29 10:29:21;;;;;;;3.60;1.50;;;22.20;99.90;;;;;;5034970;28;20577;-79
2022/06/29 10:31:56;;;;;;;2.23;1.20;;;22.20;99.90;;;;;;5050315;28;20230;-79
2022/06/29 10:34:31;;;;;;;2.90;1.50;;;22.30;1.00;;;;;;5035650;28;20708;-80
2022/06/29 10:37:02;;;;;;;1.57;1.33;;;22.30;99.90;;;;;;5035909;28;20172;-79
2022/06/29 10:39:43;;;;;;;2.77;1.80;;;22.30;99.90;;;;;;5035062;28;20173;-79
2022/06/29 10:45:08;;;;;;;2.70;1.20;;;22.40;99.90;;;;;;5034722;28;20250;-79
2022/06/29 10:47:33;;;;;;;1.53;1.43;;;22.50;99.90;;;;;;5034589;28;20223;-79
2022/06/29 10:50:15;;;;;;;2.50;1.27;;;22.50;81.80;;;;;;5035437;28;20179;-79
2022/06/29 10:52:41;;;;;;;1.40;1.20;;;22.70;99.90;;;;;;5049702;28;20180;-79
2022/06/29 10:55:07;;;;;;;3.03;1.30;;;22.80;99.90;;;;;;5034653;28;20670;-79
2022/06/29 10:57:37;;;;;;;1.50;1.40;;;22.90;1.00;;;;;;5050138;28;20177;-79
2022/06/29 11:00:08;;;;;;;2.20;1.40;;;23.00;1.00;;;;;;5034769;28;20184;-78
2022/06/29 11:02:37;;;;;;;3.40;1.70;;;23.10;1.00;;;;;;5050286;28;20678;-79
2022/06/29 11:05:04;;;;;;;2.67;1.60;;;23.10;1.00;;;;;;5017325;28;20199;-79
2022/06/29 11:12:58;;;;;;;2.20;1.33;;;23.30;1.00;;;;;;5035071;28;20199;-78
2022/06/29 11:15:40;;;;;;;2.27;1.50;;;23.40;1.00;;;;;;5034499;28;20200;-79
2022/06/29 11:18:12;;;;;;;2.33;1.50;;;23.50;99.90;;;;;;4996963;28;20169;-79
2022/06/29 11:20:42;;;;;;;3.90;1.50;;;23.60;1.00;;;;;;5015218;28;20223;-80
2022/06/29 11:23:15;;;;;;;1.67;1.37;;;23.70;1.00;;;;;;5000593;28;20204;-79
2022/06/29 11:25:45;;;;;;;1.77;1.47;;;23.70;99.90;;;;;;5018999;28;20252;-79
2022/06/29 11:28:12;;;;;;;2.60;1.43;;;23.80;1.00;;;;;;5001462;28;20165;-79
2022/06/29 11:30:38;;;;;;;2.63;1.50;;;23.80;99.90;;;;;;5000912;28;20180;-79
2022/06/29 11:33:11;;;;;;;1.70;1.43;;;23.80;99.90;;;;;;5018497;28;20173;-80
2022/06/29 11:35:42;;;;;;;2.10;1.37;;;23.90;99.90;;;;;;5018118;28;20627;-79
2022/06/29 11:38:08;;;;;;;1.93;1.40;;;24.00;99.90;;;;;;5018221;28;20150;-79
2022/06/29 11:40:35;;;;;;;1.60;1.20;;;24.10;99.90;;;;;;5018264;28;20597;-79
2022/06/29 11:43:09;;;;;;;2.50;1.20;;;24.20;98.30;;;;;;5018368;28;20555;-79
2022/06/29 11:45:40;;;;;;;3.00;1.47;;;24.20;99.90;;;;;;5017865;28;20675;-79
2022/06/29 11:48:14;;;;;;;1.70;1.27;;;24.20;99.90;;;;;;5018158;28;20157;-79
2022/06/29 11:50:46;;;;;;;3.40;1.33;;;24.30;99.90;;;;;;5018552;28;20160;-79
2022/06/29 11:53:13;;;;;;;1.90;1.50;;;24.30;99.90;;;;;;5017379;28;20203;-78
2022/06/29 11:55:44;;;;;;;3.10;1.60;;;24.40;99.90;;;;;;4999417;28;20224;-78
2022/06/29 11:58:14;;;;;;;1.53;1.30;;;24.40;1.00;;;;;;5017979;28;20165;-79
2022/06/29 12:00:42;;;;;;;3.40;1.40;;;24.50;99.90;;;;;;5016895;28;20169;-78
2022/06/29 12:03:08;;;;;;;4.63;1.63;;;24.50;99.90;;;;;;5016560;28;20201;-78
2022/06/29 12:05:34;;;;;;;1.87;1.30;;;24.60;1.00;;;;;;5016608;28;20193;-78
2022/06/29 12:08:00;;;;;;;5.07;1.80;;;24.70;1.00;;;;;;5015945;28;20176;-78
2022/06/29 12:10:25;;;;;;;3.33;1.50;;;24.80;35.10;;;;;;5015209;28;20590;-79
2022/06/29 12:12:51;;;;;;;1.97;1.53;;;24.90;99.90;;;;;;5015504;28;20196;-79
2022/06/29 12:15:17;;;;;;;3.40;1.50;;;25.00;99.90;;;;;;5016741;28;20197;-77
2022/06/29 12:17:43;;;;;;;2.00;1.20;;;25.10;28.80;;;;;;4999164;28;20643;-77
2022/06/29 12:20:09;;;;;;;1.50;1.40;;;25.20;1.00;;;;;;5016328;28;20665;-79
2022/06/29 12:22:34;;;;;;;2.33;1.53;;;25.20;1.00;;;;;;4998625;28;20243;-78
2022/06/29 12:25:00;;;;;;;2.03;1.53;;;25.30;1.00;;;;;;5016091;28;20205;-78
2022/06/29 12:27:27;;;;;;;2.17;1.60;;;25.40;1.00;;;;;;4998545;28;20269;-78
2022/06/29 12:29:52;;;;;;;2.70;1.73;;;25.50;1.00;;;;;;5016050;28;20620;-78
2022/06/29 12:32:18;;;;;;;2.07;1.20;;;25.60;1.00;;;;;;5016399;28;20257;-78
2022/06/29 12:34:44;;;;;;;2.03;1.45;;;25.80;1.00;;;;;;4998915;28;20183;-78
2022/06/29 12:37:09;;;;;;;2.65;1.40;;;25.90;1.00;;;;;;5016149;28;20255;-77
2022/06/29 12:39:35;;;;;;;2.25;1.30;;;26.00;99.90;;;;;;5016175;28;20204;-78
2022/06/29 12:42:03;;;;;;;1.55;1.20;;;26.10;99.90;;;;;;5015331;28;20232;-78
2022/06/29 12:44:29;;;;;;;1.77;1.48;;;26.00;34.00;;;;;;5015925;28;20175;-76
2022/06/29 12:46:54;;;;;;;5.13;1.35;;;26.10;17.10;;;;;;5016052;28;20271;-78
2022/06/29 12:49:20;;;;;;;3.47;1.45;;;26.00;99.90;;;;;;4998916;28;20611;-78
2022/06/29 12:51:45;;;;;;;7.70;1.40;;;26.10;99.90;;;;;;4998831;28;20185;-78
2022/06/29 12:54:11;;;;;;;1.75;1.30;;;26.00;99.90;;;;;;4999068;28;20643;-78
2022/06/29 12:56:37;;;;;;;2.20;1.38;;;26.10;99.90;;;;;;4999160;28;20260;-78
2022/06/29 12:59:02;;;;;;;1.70;1.30;;;26.00;99.90;;;;;;5015767;28;20188;-77
2022/06/29 13:01:28;;;;;;;2.53;1.50;;;26.00;99.90;;;;;;5016496;28;20336;-79
2022/06/29 13:03:54;;;;;;;1.67;1.40;;;26.00;1.00;;;;;;4999377;28;20177;-79
2022/06/29 13:06:19;;;;;;;3.10;1.65;;;26.00;99.90;;;;;;5017148;28;20200;-79
2022/06/29 13:08:45;;;;;;;3.80;1.50;;;26.10;99.90;;;;;;5017007;28;20169;-79